NWS Home NWS Lubbock West Texas Mesonet South Sector Latest Conditions as of 0230 AM, Sun Mar 24, 2019

Latest   N   C   S   Daily Sum   3hrΔ   24hrΔ   Soil Data 
Site Map   24hr Precip   72hr Precip   Google Plot


Station Time of Last Temp Dew Pt. RH Wind Direction Wind Speed Wind Gust Max Wind Max Temp Min Temp Max RH Min RH Altimeter 1HR Rain Today's Rain Solar Rad
Andrews 2E  02:25 AM 55 24 30% SW811 14 mph 186° @ 0135 AM 55 51 43 29 30.03" 0 0.00 0
Aspermont 3NE  02:25 AM 54 35 49% S1213 13 mph 183° @ 0225 AM 56 53 52 46 29.96" 0 0.00 0
Big Bend NP - Persimmon Gap  02:25 AM 64 45 50% NE1416 21 mph 74° @ 1256 AM 68 59 50 17 30.02" 0 0.00 0
Big Lake 1WNW  02:25 AM 57 54 92% S57 16 mph 182° @ 1202 AM 62 57 92 73 30.05" 0 0.00 0
Brownfield 2S  02:25 AM 48 25 41% SW1011 11 mph 235° @ 0225 AM 51 43 55 36 30.00" 0 0.00 0
Clyde 2WNW  02:25 AM 57 56 96% S1013 17 mph 171° @ 0146 AM 60 57 96 90 30.01" 0 0.00 0
Colorado City 5NW  02:25 AM 52 35 53% S67 13 mph 152° @ 0154 AM 55 50 59 50 30.01" 0 0.00 0
Coyanosa 2N  02:25 AM 49 34 56% S1011 12 mph 183° @ 0159 AM 58 49 56 33 30.02" 0 0.00 0
Crane 1NNW   02:25 AM 62 55 77% S1516 27 mph 174° @ 1231 AM 66 62 77 45 30.02" 0 0.00 0
Dell City  02:25 AM 46 24 42% S24 11 mph 173° @ 0131 AM 51 46 49 33 30.08" 0 0.00 0
Denver City 7WNW  02:25 AM 47 20 34% W1114 14 mph 244° @ 0200 AM 47 44 42 34 30.02" 0 0.00 0
Fluvanna 3WNW  02:25 AM 52 30 44% S813 13 mph 187° @ 0225 AM 55 52 44 39 29.99" 0 0.00 0
Fort Chadbourne  02:25 AM 53 45 75% E33 8 mph 224° @ 1238 AM 57 49 75 53 30.02" 0 0.00 0
Fort Lancaster  02:25 AM 63 60 90% E67 11 mph 122° @ 1204 AM 65 63 90 76 30.03" 0 0.00 0
Fort McKavett  02:25 AM 62 60 92% S35 23 mph 170° @ 1244 AM 64 62 92 84 30.06" 0 0.00 0
Gail 2ESE  02:25 AM 53 27 37% SW910 11 mph 219° @ 0200 AM 56 53 37 31 29.99" 0 0.00 0
Graham 5SSW  02:25 AM 55 25 31% SW912 12 mph 237° @ 0225 AM 58 52 37 26 29.99" 0 0.00 0
Guadalupe Mtns Natl Park  02:25 AM 56 18 22% SW610 27 mph 240° @ 0106 AM 60 53 24 19 30.12" 0 0.00 0
Haskell 1NW  02:25 AM 53 48 83% S911 13 mph 173° @ 0125 AM 57 53 83 45 29.96" 0 0.00 0
Hobbs NM 5NW  02:25 AM 47 20 34% S99 12 mph 273° @ 0136 AM 53 47 34 23 30.06" 0 0.00 0
Jayton 1SSE  02:25 AM 52 33 48% SW45 7 mph 219° @ 0140 AM 55 52 48 41 29.97" 0 0.00 0
Junction 1SSW  02:25 AM 64 61 87% S45 11 mph 189° @ 1223 AM 64 63 90 86 30.05" 0 0.00 0
Lake Alan Henry 1NW  02:25 AM 52 32 46% SW77 8 mph 223° @ 1246 AM 55 52 48 42 29.97" 0 0.00 0
Lamesa 2SE  02:25 AM 47 29 50% SW66 13 mph 204° @ 1250 AM 52 45 57 38 30.02" 0 0.00 0
Lomax 1SSE  02:25 AM 52 32 47% S1012 12 mph 206° @ 0115 AM 54 48 57 41 30.02" 0 0.00 0
McCamey 1SSW  02:25 AM 61 56 82% E56 12 mph 139° @ 1218 AM 63 61 84 59 30.04" 0 0.00 0
Menard 2NW   02:25 AM 64 59 84% S79 18 mph 185° @ 0116 AM 65 63 88 83 30.05" 0 0.00 0
Mertzon 3NNE  02:25 AM 54 50 86% S67 10 mph 191° @ 0200 AM 58 54 89 71 30.04" 0 0.00 0
New Home  02:25 AM 47 26 42% SW77 11 mph 199° @ 0116 AM 53 47 42 32 30.01" 0 0.00 0
O'Donnell 1N  02:25 AM 46 28 50% S67 9 mph 194° @ 0140 AM 53 46 50 31 30.00" 0 0.00 0
Plains 3N  02:25 AM 41 28 61% NW79 12 mph 226° @ 0100 AM 52 41 61 29 30.02" 0 0.00 0
Post 1NE  02:25 AM 58 23 26% SW912 12 mph 227° @ 0220 AM 58 55 31 26 29.97" 0 0.00 0
Rotan 5W  02:25 AM 55 33 43% S1515 17 mph 180° @ 0222 AM 58 55 43 39 29.99" 0 0.00 0
San Angelo 7NW  02:25 AM 60 53 81% SE58 11 mph 181° @ 0125 AM 61 58 81 65 30.02" 0 0.00 0
Seagraves 1SW  02:25 AM 44 27 52% SW68 11 mph 215° @ 1245 AM 46 42 64 49 30.01" 0 0.00 0
Segovia 7SSW  02:25 AM 63 59 88% S1417 23 mph 173° @ 1254 AM 64 63 90 86 30.06" 0 0.00 0
Seminole 2NNE  02:10 AM 53 20 27% W911 13 mph 248° @ 0145 AM 56 52 30 23 30.01" 0 0.00 0
Sierra Blanca 1SSE  02:25 AM 57 19 23% W67 7 mph 266° @ 0225 AM 60 54 25 20 30.12" 0 0.00 0
Snyder 3E  02:25 AM 52 35 53% S1012 12 mph 174° @ 0225 AM 57 52 53 41 29.99" 0 0.00 0
Snyder 3SSW  02:25 AM 52 35 52% S1011 14 mph 183° @ 0157 AM 56 52 52 42 30.00" 0 0.00 0
St. Lawrence 5SW  02:25 AM 58 55 89% S1114 18 mph 173° @ 1230 AM 58 54 89 37 30.02" 0 0.00 0
Stamford 5ESE  02:25 AM 58 53 86% S1012 17 mph 178° @ 0213 AM 58 54 86 46 29.98" 0 0.00 0
Sterling City 4WSW  02:25 AM 60 53 77% S1619 23 mph 179° @ 0209 AM 61 45 77 42 30.02" 0 0.00 0
Sundown 8WSW  02:25 AM 40 27 58% SW99 13 mph 212° @ 1205 AM 49 40 58 39 30.01" 0 0.00 0
Sweetwater 11SW   02:25 AM 58 47 65% S1012 16 mph 176° @ 0144 AM 59 55 65 37 30.03" 0 0.00 0
Tahoka 3NNE  02:25 AM 47 27 45% S78 9 mph 198° @ 0100 AM 55 46 46 27 30.00" 0 0.00 0
Tarzan 2WNW  02:25 AM 51 35 53% SW1010 12 mph 210° @ 0204 AM 55 50 53 41 30.02" 0 0.00 0
Tatum NM 2SW  02:25 AM 41 25 53% W910 13 mph 275° @ 0100 AM 44 39 55 43 30.04" 0 0.00 0
Throckmorton 1SW  02:25 AM 60 58 92% S913 19 mph 182° @ 0156 AM 62 60 92 89 29.97" 0 0.00 0
Van Horn 3ENE  02:25 AM 52 19 26% SW89 14 mph 212° @ 0159 AM 58 50 26 21 30.10" 0 0.00 0
Wall 2E  02:25 AM 62 55 80% S78 12 mph 216° @ 0136 AM 65 59 81 69 30.04" 0 0.00 0
Weinert 2NNE  02:25 AM 57 51 79% S1317 19 mph 189° @ 0209 AM 60 56 79 38 29.95" 0 0.00 0
Welch  02:25 AM 42 28 56% SW33 12 mph 206° @ 1230 AM 48 42 56 37 30.01" 0 0.00 0

West Texas Mesonet Home   Site Map/Menu  NWS Lubbock Soil Data  Daily Summary Page  24hr Precip  72hr Precip  Google Plot